createdAt,value
2022-08-02T00:18:40.246Z,15
2022-08-02T00:28:40.988Z,14.9
2022-08-02T00:38:41.358Z,14.8
2022-08-02T00:48:43.112Z,14.6
2022-08-02T00:58:42.627Z,14.8
2022-08-02T01:18:43.911Z,14.6
2022-08-02T01:28:44.373Z,14.4
2022-08-02T01:38:44.947Z,14.4
2022-08-02T01:48:45.272Z,14.5
2022-08-02T01:58:45.998Z,14.5
2022-08-02T02:08:46.699Z,14.4
2022-08-02T02:12:03.537Z,14.4
2022-08-02T02:18:55.634Z,14.5
2022-08-02T02:28:56.360Z,14.5
2022-08-02T02:38:57.148Z,14.3
2022-08-02T03:08:59.517Z,14.2
2022-08-02T03:19:00.219Z,14.4
2022-08-02T03:29:00.855Z,14.5
2022-08-02T03:39:01.432Z,14.6
2022-08-02T03:49:01.747Z,14.7
2022-08-02T03:59:02.386Z,14.8
2022-08-02T04:09:03.320Z,14.8
2022-08-02T04:19:03.700Z,14.8
2022-08-02T04:29:03.845Z,14.8
2022-08-02T04:39:03.937Z,14.9
2022-08-02T04:49:04.930Z,15.1
2022-08-02T04:59:05.081Z,15.4
2022-08-02T05:09:05.893Z,15.7
2022-08-02T05:19:06.196Z,16
2022-08-02T05:29:06.752Z,16.3
2022-08-02T05:39:06.812Z,16.4
2022-08-02T05:49:07.184Z,16.4
2022-08-02T05:59:07.376Z,17
2022-08-02T06:09:07.706Z,17.5
2022-08-02T06:19:08.138Z,18
2022-08-02T06:39:09.290Z,19.5
2022-08-02T06:49:10.198Z,19.8
2022-08-02T06:59:11.128Z,20.1
2022-08-02T07:09:20.319Z,20.4
2022-08-02T07:19:11.894Z,20.6
2022-08-02T07:29:12.830Z,20.9
2022-08-02T07:49:13.964Z,21.8
2022-08-02T07:59:14.182Z,22.2
2022-08-02T08:09:14.999Z,22.4
2022-08-02T08:19:15.715Z,22.8
2022-08-02T08:29:16.009Z,23.4
2022-08-02T08:39:16.544Z,23.7
2022-08-02T08:49:17.021Z,23.9
2022-08-02T08:59:17.782Z,24.3
2022-08-02T09:09:18.656Z,24.6
2022-08-02T09:19:19.080Z,24.7
2022-08-02T09:29:19.354Z,25
2022-08-02T09:49:20.541Z,25.5
2022-08-02T10:09:22.241Z,25.4
2022-08-02T11:19:25.754Z,26.9
2022-08-02T11:39:26.815Z,27.2
2022-08-02T11:59:28.450Z,26.8
2022-08-02T12:19:28.842Z,26.7
2022-08-02T12:39:31.537Z,27.7
2022-08-02T12:59:30.568Z,27.7
2022-08-02T13:09:31.541Z,27.7
2022-08-02T13:29:33.162Z,27.9
2022-08-02T13:39:33.509Z,28.4
2022-08-02T13:59:57.941Z,28.4
2022-08-02T14:19:36.185Z,28.6
2022-08-02T14:39:42.675Z,28.7
2022-08-02T15:09:39.612Z,28.6
2022-08-02T15:49:41.668Z,28.4
2022-08-02T15:59:40.035Z,28.5
2022-08-02T18:09:46.756Z,27.6
2022-08-02T18:19:54.181Z,27.5
2022-08-02T18:59:51.369Z,26.8
2022-08-02T19:09:50.707Z,26.5
2022-08-02T19:19:51.379Z,26.2
2022-08-02T19:29:53.487Z,25.7
2022-08-02T19:39:52.142Z,25.2
2022-08-02T19:49:53.091Z,24.6
2022-08-02T20:39:56.276Z,22.6
2022-08-02T20:49:57.281Z,22.4
2022-08-02T22:30:04.087Z,21
